Time;durP1;ratioP1;P1;durP2;ratioP2;P2;SDS_P1;SDS_P2;PMS_P1;PMS_P2;Temp;Humidity;BMP_temperature;BMP_pressure;BME280_temperature;BME280_humidity;BME280_pressure;Samples;Min_cycle;Max_cycle;Signal;HPM_P1;HPM_P2
2023/12/20 00:02:14;;;;;;;4.43;2.60;;;;;;;;;;4996426;28;20030;-87
2023/12/20 00:04:40;;;;;;;6.97;3.10;;;;;;;;;;4995445;28;20492;-88
2023/12/20 00:07:05;;;;;;;6.47;2.67;;;;;;;;;;4998574;28;20038;-87
2023/12/20 00:09:31;;;;;;;5.43;2.85;;;;;;;;;;4998053;28;20408;-87
2023/12/20 00:11:57;;;;;;;6.00;2.88;;;;;;;;;;5018130;28;20038;-87
2023/12/20 00:14:22;;;;;;;5.97;3.20;;;;;;;;;;5001569;28;20043;-88
2023/12/20 00:16:47;;;;;;;6.93;3.72;;;;;;;;;;5004551;28;20030;-87
2023/12/20 00:19:13;;;;;;;7.30;2.80;;;;;;;;;;5003573;28;20416;-87
2023/12/20 00:21:38;;;;;;;4.93;2.60;;;;;;;;;;5005224;28;20058;-87
2023/12/20 00:24:04;;;;;;;5.20;2.88;;;;;;;;;;4998806;28;20524;-87
2023/12/20 00:26:30;;;;;;;4.20;2.78;;;;;;;;;;4990505;28;21546;-86
2023/12/20 00:28:55;;;;;;;3.88;2.40;;;;;;;;;;4993556;28;20033;-86
2023/12/20 00:31:21;;;;;;;6.68;2.53;;;;;;;;;;4993279;28;20456;-87
2023/12/20 00:33:47;;;;;;;4.43;2.20;;;;;;;;;;4989101;28;20062;-86
2023/12/20 00:36:12;;;;;;;4.50;2.30;;;;;;;;;;4992824;28;20555;-86
2023/12/20 00:38:38;;;;;;;4.30;2.42;;;;;;;;;;4992706;28;20034;-87
2023/12/20 00:41:03;;;;;;;3.10;1.98;;;;;;;;;;4995510;28;20041;-87
2023/12/20 00:43:29;;;;;;;3.60;2.30;;;;;;;;;;5006154;28;20050;-86
2023/12/20 00:45:55;;;;;;;3.80;2.10;;;;;;;;;;4989419;28;20052;-86
2023/12/20 00:48:21;;;;;;;4.47;2.20;;;;;;;;;;4988808;28;20412;-86
2023/12/20 00:50:46;;;;;;;3.70;2.20;;;;;;;;;;4992743;28;20034;-86
2023/12/20 00:53:12;;;;;;;3.90;2.05;;;;;;;;;;4992158;28;20030;-86
2023/12/20 00:55:37;;;;;;;3.55;2.20;;;;;;;;;;4989163;28;20444;-86
2023/12/20 00:58:03;;;;;;;3.28;1.92;;;;;;;;;;4992641;28;20038;-88
2023/12/20 01:00:28;;;;;;;5.43;2.20;;;;;;;;;;4992337;28;20042;-87
2023/12/20 01:02:54;;;;;;;4.68;2.40;;;;;;;;;;4995765;28;20042;-87
2023/12/20 01:05:22;;;;;;;4.63;2.20;;;;;;;;;;4991064;28;20048;-86
2023/12/20 01:07:48;;;;;;;3.58;2.28;;;;;;;;;;4986896;28;20046;-86
2023/12/20 01:10:14;;;;;;;3.20;2.22;;;;;;;;;;4990553;28;20034;-85
2023/12/20 01:12:40;;;;;;;3.05;1.90;;;;;;;;;;4973844;28;20034;-86
2023/12/20 01:15:06;;;;;;;3.30;1.90;;;;;;;;;;4993328;28;20030;-86
2023/12/20 01:17:31;;;;;;;2.80;1.85;;;;;;;;;;4994346;28;20068;-86
2023/12/20 01:19:58;;;;;;;3.33;2.10;;;;;;;;;;4992594;28;20037;-86
2023/12/20 01:22:23;;;;;;;3.20;1.83;;;;;;;;;;4991673;28;20037;-86
2023/12/20 01:24:49;;;;;;;2.45;1.75;;;;;;;;;;4991466;28;20030;-86
2023/12/20 01:27:14;;;;;;;3.47;1.67;;;;;;;;;;5003257;28;20113;-88
2023/12/20 01:29:40;;;;;;;4.50;2.15;;;;;;;;;;4991225;28;20034;-87
2023/12/20 01:32:05;;;;;;;3.67;1.88;;;;;;;;;;4994340;28;20034;-87
2023/12/20 01:34:31;;;;;;;3.03;1.90;;;;;;;;;;4995994;28;20039;-87
2023/12/20 01:36:56;;;;;;;3.90;2.08;;;;;;;;;;4996185;28;20026;-87
2023/12/20 01:39:22;;;;;;;3.40;1.95;;;;;;;;;;4993431;28;20034;-87
2023/12/20 01:41:47;;;;;;;4.30;2.00;;;;;;;;;;4995250;28;20124;-88
2023/12/20 01:44:13;;;;;;;5.30;1.73;;;;;;;;;;4996218;28;20042;-86
2023/12/20 01:46:38;;;;;;;3.30;1.75;;;;;;;;;;4996444;28;20132;-87
2023/12/20 01:49:04;;;;;;;3.67;1.70;;;;;;;;;;4991370;28;20038;-87
2023/12/20 01:51:30;;;;;;;3.00;1.90;;;;;;;;;;4989161;28;20072;-86
2023/12/20 01:53:57;;;;;;;4.07;1.80;;;;;;;;;;4992483;28;20113;-86
2023/12/20 01:56:24;;;;;;;2.95;1.80;;;;;;;;;;4991958;28;20045;-86
2023/12/20 01:58:49;;;;;;;5.20;1.92;;;;;;;;;;4989353;28;20522;-86
2023/12/20 02:01:15;;;;;;;5.03;1.90;;;;;;;;;;4974185;28;20034;-87
2023/12/20 02:03:42;;;;;;;3.45;1.80;;;;;;;;;;4974373;28;20538;-87
2023/12/20 02:06:09;;;;;;;3.33;1.85;;;;;;;;;;4997059;28;20045;-86
2023/12/20 02:08:35;;;;;;;2.92;1.73;;;;;;;;;;5011949;28;20064;-87
2023/12/20 02:11:01;;;;;;;3.22;1.88;;;;;;;;;;4991401;28;20057;-87
2023/12/20 02:13:26;;;;;;;2.97;1.67;;;;;;;;;;4991693;28;20508;-87
2023/12/20 02:15:53;;;;;;;3.42;1.70;;;;;;;;;;4994075;28;20377;-87
2023/12/20 02:18:18;;;;;;;3.00;1.80;;;;;;;;;;4994270;28;20523;-87
2023/12/20 02:20:44;;;;;;;3.40;1.90;;;;;;;;;;4995467;28;20054;-87
2023/12/20 02:23:09;;;;;;;3.13;1.83;;;;;;;;;;4995699;28;20046;-87
2023/12/20 02:25:35;;;;;;;2.83;1.90;;;;;;;;;;4994104;28;20041;-87
2023/12/20 02:28:02;;;;;;;2.30;1.65;;;;;;;;;;5011480;28;20043;-87
2023/12/20 02:30:27;;;;;;;3.40;2.00;;;;;;;;;;4994861;28;20040;-87
2023/12/20 02:32:53;;;;;;;3.30;1.90;;;;;;;;;;4990668;28;20105;-88
2023/12/20 02:35:19;;;;;;;3.03;2.10;;;;;;;;;;5004709;28;20086;-87
2023/12/20 02:37:44;;;;;;;3.40;1.90;;;;;;;;;;4995004;28;20038;-87
2023/12/20 02:40:10;;;;;;;3.42;1.85;;;;;;;;;;4996654;28;20034;-87
2023/12/20 02:42:36;;;;;;;3.20;2.00;;;;;;;;;;4991477;28;20046;-88
2023/12/20 02:45:01;;;;;;;3.55;2.17;;;;;;;;;;4993233;28;20042;-87
2023/12/20 02:47:27;;;;;;;3.33;1.80;;;;;;;;;;4994342;28;20054;-87
2023/12/20 02:49:53;;;;;;;3.63;2.05;;;;;;;;;;4994397;28;20034;-87
2023/12/20 02:52:18;;;;;;;3.53;1.80;;;;;;;;;;4988746;28;20042;-86
2023/12/20 02:54:44;;;;;;;3.72;2.00;;;;;;;;;;4995094;28;20105;-87
2023/12/20 02:57:09;;;;;;;2.78;1.88;;;;;;;;;;4993660;28;20118;-87
2023/12/20 02:59:35;;;;;;;4.35;2.05;;;;;;;;;;4992066;28;20058;-86
2023/12/20 03:02:00;;;;;;;3.53;2.00;;;;;;;;;;4994767;28;20092;-86
2023/12/20 03:04:26;;;;;;;3.95;2.10;;;;;;;;;;4994570;28;20121;-88
2023/12/20 03:06:51;;;;;;;2.97;1.75;;;;;;;;;;4994539;28;20065;-87
2023/12/20 03:09:17;;;;;;;3.47;1.80;;;;;;;;;;4993666;28;20512;-88
2023/12/20 03:11:42;;;;;;;3.80;2.08;;;;;;;;;;4995407;28;20038;-87
2023/12/20 03:14:08;;;;;;;2.80;1.75;;;;;;;;;;4995069;28;20031;-87
2023/12/20 03:16:33;;;;;;;4.30;2.17;;;;;;;;;;4998181;28;20027;-86
2023/12/20 03:18:59;;;;;;;3.47;1.98;;;;;;;;;;4999871;28;20116;-86
2023/12/20 03:21:24;;;;;;;3.25;1.90;;;;;;;;;;4993079;28;20468;-86
2023/12/20 03:23:50;;;;;;;3.85;2.20;;;;;;;;;;4994994;28;20073;-86
2023/12/20 03:26:15;;;;;;;3.25;2.08;;;;;;;;;;4993264;28;20452;-86
2023/12/20 03:28:41;;;;;;;3.55;2.00;;;;;;;;;;4996768;28;20034;-86
2023/12/20 03:31:06;;;;;;;3.50;1.90;;;;;;;;;;4995350;28;20049;-86
2023/12/20 03:33:31;;;;;;;2.60;1.80;;;;;;;;;;4995851;28;20523;-88
2023/12/20 03:35:57;;;;;;;3.30;1.85;;;;;;;;;;4999312;28;20069;-87
2023/12/20 03:38:23;;;;;;;2.60;1.83;;;;;;;;;;4999125;28;20061;-87
2023/12/20 03:40:49;;;;;;;2.40;1.65;;;;;;;;;;4997684;28;20058;-87
2023/12/20 03:43:15;;;;;;;3.60;1.90;;;;;;;;;;4997832;28;20094;-86
2023/12/20 03:45:42;;;;;;;3.40;1.80;;;;;;;;;;4997821;28;20026;-87
2023/12/20 03:48:08;;;;;;;6.07;2.30;;;;;;;;;;4998706;28;20097;-87
2023/12/20 03:50:34;;;;;;;5.55;2.28;;;;;;;;;;4996470;28;20045;-87
2023/12/20 03:53:00;;;;;;;4.25;1.70;;;;;;;;;;4998812;28;20057;-87
2023/12/20 03:55:25;;;;;;;2.05;1.50;;;;;;;;;;4995338;28;20041;-87
2023/12/20 03:57:51;;;;;;;4.10;1.73;;;;;;;;;;5000012;28;20041;-87
2023/12/20 04:00:16;;;;;;;2.83;1.63;;;;;;;;;;4998170;28;20040;-87
2023/12/20 04:02:42;;;;;;;2.30;1.55;;;;;;;;;;4993099;28;20038;-87
2023/12/20 04:05:09;;;;;;;3.00;1.75;;;;;;;;;;4993529;28;20162;-88
2023/12/20 04:07:35;;;;;;;2.58;1.60;;;;;;;;;;4994406;28;20054;-87
2023/12/20 04:10:02;;;;;;;2.90;1.48;;;;;;;;;;5011204;28;20039;-87
2023/12/20 04:12:28;;;;;;;2.90;1.60;;;;;;;;;;4996487;28;20559;-86
2023/12/20 04:14:53;;;;;;;3.00;1.70;;;;;;;;;;4993163;28;20081;-87
2023/12/20 04:17:20;;;;;;;2.45;1.65;;;;;;;;;;4993244;28;20042;-86
2023/12/20 04:19:46;;;;;;;2.70;1.52;;;;;;;;;;4993289;28;20035;-86
2023/12/20 04:22:11;;;;;;;3.03;1.60;;;;;;;;;;4993404;28;20049;-86
2023/12/20 04:24:37;;;;;;;3.60;1.63;;;;;;;;;;4988300;28;20042;-86
2023/12/20 04:27:02;;;;;;;4.00;1.98;;;;;;;;;;4993262;28;20065;-87
2023/12/20 04:29:28;;;;;;;3.90;2.03;;;;;;;;;;4989962;28;20585;-88
2023/12/20 04:31:53;;;;;;;3.53;1.95;;;;;;;;;;4998613;28;20481;-86
2023/12/20 04:34:19;;;;;;;4.63;2.13;;;;;;;;;;4997145;28;20030;-87
2023/12/20 04:36:45;;;;;;;4.10;2.10;;;;;;;;;;4992326;28;20057;-88
2023/12/20 04:39:12;;;;;;;2.90;1.80;;;;;;;;;;4996131;28;20042;-87
2023/12/20 04:41:38;;;;;;;3.25;1.65;;;;;;;;;;4978636;28;20038;-87
2023/12/20 04:44:04;;;;;;;1.92;1.27;;;;;;;;;;4994158;28;20053;-87
2023/12/20 04:46:29;;;;;;;2.53;1.50;;;;;;;;;;5005840;28;20040;-87
2023/12/20 04:48:55;;;;;;;3.38;1.58;;;;;;;;;;4992012;28;20396;-88
2023/12/20 04:51:21;;;;;;;2.25;1.17;;;;;;;;;;4991880;28;20038;-87
2023/12/20 04:53:46;;;;;;;1.63;1.00;;;;;;;;;;4993858;28;20034;-87
2023/12/20 04:56:12;;;;;;;1.25;0.95;;;;;;;;;;4995711;28;20058;-86
2023/12/20 04:58:37;;;;;;;1.63;1.00;;;;;;;;;;4992472;28;20030;-87
2023/12/20 05:01:04;;;;;;;1.48;0.90;;;;;;;;;;4994403;28;20034;-87
2023/12/20 05:03:30;;;;;;;1.90;1.20;;;;;;;;;;4996817;28;20050;-87
2023/12/20 05:05:55;;;;;;;1.48;1.00;;;;;;;;;;4999708;28;20045;-87
2023/12/20 05:08:21;;;;;;;2.97;1.25;;;;;;;;;;4997209;28;20034;-86
2023/12/20 05:10:46;;;;;;;2.58;1.25;;;;;;;;;;4997597;28;20038;-87
2023/12/20 05:13:12;;;;;;;2.00;1.15;;;;;;;;;;5001377;28;20026;-88
2023/12/20 05:15:37;;;;;;;1.98;1.10;;;;;;;;;;5000503;28;20548;-86
2023/12/20 05:18:03;;;;;;;2.13;1.00;;;;;;;;;;4999507;28;20086;-87
2023/12/20 05:20:28;;;;;;;1.17;0.80;;;;;;;;;;4993686;28;20084;-86
2023/12/20 05:22:54;;;;;;;1.65;0.95;;;;;;;;;;4997437;28;20041;-87
2023/12/20 05:25:19;;;;;;;1.80;1.10;;;;;;;;;;4995960;28;20038;-87
2023/12/20 05:27:45;;;;;;;1.90;1.10;;;;;;;;;;4996122;28;20034;-86
2023/12/20 05:30:11;;;;;;;1.70;1.10;;;;;;;;;;4997247;28;20064;-87
2023/12/20 05:32:36;;;;;;;1.73;1.10;;;;;;;;;;4995314;28;20049;-87
2023/12/20 05:35:03;;;;;;;1.58;1.00;;;;;;;;;;4998114;28;20634;-86
2023/12/20 05:37:28;;;;;;;2.03;1.20;;;;;;;;;;4994931;28;20057;-88
2023/12/20 05:39:54;;;;;;;1.40;0.98;;;;;;;;;;4991757;28;20493;-87
2023/12/20 05:42:19;;;;;;;1.25;0.90;;;;;;;;;;4993148;28;20053;-87
2023/12/20 05:44:45;;;;;;;1.08;0.80;;;;;;;;;;4994169;28;20377;-87
2023/12/20 05:47:10;;;;;;;0.80;0.70;;;;;;;;;;4995672;28;20043;-87
2023/12/20 05:49:36;;;;;;;0.90;0.70;;;;;;;;;;4994949;28;20117;-87
2023/12/20 05:52:01;;;;;;;1.20;1.00;;;;;;;;;;4996617;28;20062;-86
2023/12/20 05:54:26;;;;;;;1.73;0.98;;;;;;;;;;4996769;28;20085;-85
2023/12/20 05:56:52;;;;;;;0.90;0.80;;;;;;;;;;5014343;28;20041;-86
2023/12/20 05:59:17;;;;;;;1.02;0.55;;;;;;;;;;4998714;28;20030;-86
2023/12/20 06:01:43;;;;;;;1.30;0.80;;;;;;;;;;4996598;28;20034;-86
2023/12/20 06:04:09;;;;;;;1.75;0.73;;;;;;;;;;4997797;28;20050;-86
2023/12/20 06:06:34;;;;;;;1.50;0.80;;;;;;;;;;4995722;28;20034;-88
2023/12/20 06:09:00;;;;;;;1.55;0.75;;;;;;;;;;5000062;28;20516;-87
2023/12/20 06:11:26;;;;;;;0.98;0.63;;;;;;;;;;4995516;28;20516;-86
2023/12/20 06:13:52;;;;;;;1.35;0.80;;;;;;;;;;4992584;28;20018;-86
2023/12/20 06:16:18;;;;;;;1.35;0.80;;;;;;;;;;5011788;28;20042;-87
2023/12/20 06:18:44;;;;;;;1.75;0.90;;;;;;;;;;4978893;28;20046;-86
2023/12/20 06:21:12;;;;;;;1.75;0.90;;;;;;;;;;4997290;28;20337;-87
2023/12/20 06:23:38;;;;;;;2.67;1.15;;;;;;;;;;4998142;28;20034;-86
2023/12/20 06:26:03;;;;;;;3.45;1.30;;;;;;;;;;5005962;28;20062;-87
2023/12/20 06:28:29;;;;;;;1.77;1.20;;;;;;;;;;5006036;28;20038;-86
2023/12/20 06:30:54;;;;;;;2.95;1.00;;;;;;;;;;4995727;28;20041;-86
2023/12/20 06:33:22;;;;;;;1.80;1.20;;;;;;;;;;4996145;28;20030;-86
2023/12/20 06:35:47;;;;;;;2.17;1.30;;;;;;;;;;4996298;28;20045;-87
2023/12/20 06:38:13;;;;;;;2.28;1.35;;;;;;;;;;4997965;28;20026;-86
2023/12/20 06:40:38;;;;;;;1.85;1.23;;;;;;;;;;4995940;28;20030;-86
2023/12/20 06:43:04;;;;;;;2.08;1.05;;;;;;;;;;4979712;28;20057;-86
2023/12/20 06:45:29;;;;;;;2.08;1.10;;;;;;;;;;4995039;28;20035;-86
2023/12/20 06:47:55;;;;;;;1.67;1.10;;;;;;;;;;5010777;28;20516;-87
2023/12/20 06:50:20;;;;;;;2.95;1.23;;;;;;;;;;4977475;28;20023;-87
2023/12/20 06:52:46;;;;;;;2.50;1.45;;;;;;;;;;4984794;28;20030;-86
2023/12/20 06:55:11;;;;;;;1.75;1.10;;;;;;;;;;5002763;28;20081;-87
2023/12/20 06:57:37;;;;;;;2.38;1.23;;;;;;;;;;5003131;28;20412;-86
2023/12/20 07:00:03;;;;;;;2.13;1.40;;;;;;;;;;4993228;28;20049;-85
2023/12/20 07:02:30;;;;;;;2.05;1.02;;;;;;;;;;5000519;28;20081;-86
2023/12/20 07:04:56;;;;;;;2.35;1.30;;;;;;;;;;5001007;28;20555;-86
2023/12/20 07:07:23;;;;;;;1.52;1.00;;;;;;;;;;5003906;28;20038;-85
2023/12/20 07:09:48;;;;;;;1.00;0.90;;;;;;;;;;4999736;28;20034;-86
2023/12/20 07:12:14;;;;;;;2.17;1.30;;;;;;;;;;5000381;28;20086;-86
2023/12/20 07:14:39;;;;;;;1.70;1.25;;;;;;;;;;4982862;28;20026;-89
2023/12/20 07:17:07;;;;;;;1.15;1.00;;;;;;;;;;5002205;28;20042;-89
2023/12/20 07:19:32;;;;;;;2.00;1.20;;;;;;;;;;4998964;28;20097;-88
2023/12/20 07:21:57;;;;;;;1.42;1.10;;;;;;;;;;4999875;28;20032;-88
2023/12/20 07:24:23;;;;;;;1.10;0.90;;;;;;;;;;4996484;28;20499;-88
2023/12/20 07:26:48;;;;;;;1.58;0.98;;;;;;;;;;5013775;28;20030;-87
2023/12/20 07:29:14;;;;;;;1.65;1.10;;;;;;;;;;5015640;28;20077;-87
2023/12/20 07:31:39;;;;;;;1.65;0.80;;;;;;;;;;4995274;28;20089;-88
2023/12/20 07:34:05;;;;;;;1.23;0.80;;;;;;;;;;4997136;28;20042;-87
2023/12/20 07:36:30;;;;;;;0.95;0.70;;;;;;;;;;4996297;28;20081;-88
2023/12/20 07:38:56;;;;;;;0.77;0.65;;;;;;;;;;5000787;28;20033;-88
2023/12/20 07:41:23;;;;;;;0.82;0.60;;;;;;;;;;4993366;28;20496;-88
2023/12/20 07:43:49;;;;;;;0.50;0.50;;;;;;;;;;4996933;28;20057;-88
2023/12/20 07:46:14;;;;;;;2.22;0.50;;;;;;;;;;4995232;28;20042;-87
2023/12/20 07:48:41;;;;;;;0.80;0.70;;;;;;;;;;4993226;28;20038;-86
2023/12/20 07:51:08;;;;;;;0.85;0.60;;;;;;;;;;4995044;28;20038;-88
2023/12/20 07:53:34;;;;;;;0.60;0.60;;;;;;;;;;4991074;28;20026;-88
2023/12/20 07:56:00;;;;;;;0.50;0.50;;;;;;;;;;4991207;28;20042;-88
2023/12/20 07:58:25;;;;;;;1.77;0.70;;;;;;;;;;4995783;28;20095;-90
2023/12/20 08:00:51;;;;;;;0.75;0.60;;;;;;;;;;4997241;28;20026;-86
2023/12/20 08:03:16;;;;;;;1.52;0.80;;;;;;;;;;4995983;28;20039;-86
2023/12/20 08:05:42;;;;;;;0.88;0.70;;;;;;;;;;4996346;28;20034;-88
2023/12/20 08:08:07;;;;;;;0.93;0.70;;;;;;;;;;4994799;28;20042;-85
2023/12/20 08:10:33;;;;;;;0.75;0.70;;;;;;;;;;4991499;28;20042;-87
2023/12/20 08:12:58;;;;;;;1.20;0.75;;;;;;;;;;4990891;28;20030;-88
2023/12/20 08:15:24;;;;;;;1.67;0.80;;;;;;;;;;4988503;28;20062;-90
2023/12/20 08:17:53;;;;;;;1.27;0.80;;;;;;;;;;4994818;28;20464;-87
2023/12/20 08:20:18;;;;;;;1.33;0.90;;;;;;;;;;4996021;28;20045;-87
2023/12/20 08:22:44;;;;;;;0.90;0.75;;;;;;;;;;4997414;28;20121;-89
2023/12/20 08:25:09;;;;;;;1.40;0.88;;;;;;;;;;4997351;28;20053;-87
2023/12/20 08:27:41;;;;;;;1.23;0.80;;;;;;;;;;4994163;28;20047;-91
2023/12/20 08:30:08;;;;;;;1.00;0.75;;;;;;;;;;4996738;28;20709;-90
2023/12/20 08:32:34;;;;;;;1.60;0.80;;;;;;;;;;4996267;28;20173;-88
2023/12/20 08:35:00;;;;;;;1.02;0.80;;;;;;;;;;4995862;28;20074;-89
2023/12/20 08:37:25;;;;;;;1.40;0.90;;;;;;;;;;4995529;28;20386;-88
2023/12/20 08:39:51;;;;;;;1.00;0.80;;;;;;;;;;4998142;28;20453;-89
2023/12/20 08:42:16;;;;;;;0.65;0.63;;;;;;;;;;4998365;28;20038;-87
2023/12/20 08:44:42;;;;;;;1.30;0.90;;;;;;;;;;4995758;28;20093;-85
2023/12/20 08:47:07;;;;;;;2.00;0.77;;;;;;;;;;4999464;28;20073;-86
2023/12/20 08:49:33;;;;;;;0.73;0.60;;;;;;;;;;4993448;28;20098;-87
2023/12/20 08:51:58;;;;;;;0.50;0.50;;;;;;;;;;4998941;28;20054;-86
2023/12/20 08:54:24;;;;;;;0.68;0.57;;;;;;;;;;4994573;28;20467;-87
2023/12/20 08:56:49;;;;;;;2.65;0.47;;;;;;;;;;5013216;28;20023;-87
2023/12/20 08:59:15;;;;;;;0.98;0.60;;;;;;;;;;4998696;28;20500;-87
2023/12/20 09:01:41;;;;;;;0.50;0.40;;;;;;;;;;5000192;28;20045;-87
2023/12/20 09:04:06;;;;;;;1.40;0.60;;;;;;;;;;5001244;28;20038;-87
2023/12/20 09:06:32;;;;;;;1.08;0.70;;;;;;;;;;4999764;28;20045;-87
2023/12/20 09:08:57;;;;;;;0.60;0.60;;;;;;;;;;4996281;28;20026;-87
2023/12/20 09:11:23;;;;;;;1.30;0.70;;;;;;;;;;4997975;28;20169;-87
2023/12/20 09:13:48;;;;;;;0.77;0.60;;;;;;;;;;4998829;28;20030;-87
2023/12/20 09:16:15;;;;;;;0.73;0.70;;;;;;;;;;4994592;28;20519;-85
2023/12/20 09:18:41;;;;;;;1.17;0.80;;;;;;;;;;4999619;28;20027;-87
2023/12/20 09:21:07;;;;;;;2.90;0.80;;;;;;;;;;5000661;28;20042;-87
2023/12/20 09:23:32;;;;;;;2.30;0.98;;;;;;;;;;5000408;28;20061;-86
2023/12/20 09:25:58;;;;;;;8.85;3.22;;;;;;;;;;4999121;28;20034;-87
2023/12/20 09:28:23;;;;;;;1.30;0.80;;;;;;;;;;4998692;28;20485;-86
2023/12/20 09:30:49;;;;;;;0.95;0.70;;;;;;;;;;4997718;28;20053;-87
2023/12/20 09:33:16;;;;;;;2.00;0.90;;;;;;;;;;4998198;28;20116;-86
2023/12/20 09:35:42;;;;;;;1.67;1.05;;;;;;;;;;4996102;28;20026;-86
2023/12/20 09:38:07;;;;;;;4.40;1.70;;;;;;;;;;4995954;28;20038;-86
2023/12/20 09:40:35;;;;;;;1.23;0.75;;;;;;;;;;4998629;28;20034;-85
2023/12/20 09:43:05;;;;;;;1.33;0.80;;;;;;;;;;5001695;28;20042;-85
2023/12/20 09:45:31;;;;;;;1.70;0.85;;;;;;;;;;5013400;28;20038;-87
2023/12/20 09:47:58;;;;;;;0.93;0.68;;;;;;;;;;4999714;28;20030;-86
2023/12/20 09:50:23;;;;;;;0.80;0.55;;;;;;;;;;5013569;28;20026;-86
2023/12/20 09:52:52;;;;;;;0.90;0.63;;;;;;;;;;4997654;28;20086;-86
2023/12/20 09:55:19;;;;;;;1.63;0.90;;;;;;;;;;4991139;28;20042;-88
2023/12/20 09:57:46;;;;;;;2.55;0.80;;;;;;;;;;4991410;28;20042;-86
2023/12/20 10:00:13;;;;;;;1.70;0.80;;;;;;;;;;4995280;28;20420;-87
2023/12/20 10:02:45;;;;;;;0.75;0.50;;;;;;;;;;5009841;28;20026;-86
2023/12/20 10:05:16;;;;;;;0.80;0.70;;;;;;;;;;4990790;28;20038;-86
2023/12/20 10:07:41;;;;;;;1.55;1.00;;;;;;;;;;4976027;28;20035;-86
2023/12/20 10:10:08;;;;;;;0.75;0.40;;;;;;;;;;4991817;28;20041;-85
2023/12/20 10:12:34;;;;;;;0.73;0.52;;;;;;;;;;4990676;28;20034;-87
2023/12/20 10:14:59;;;;;;;0.50;0.30;;;;;;;;;;4992794;28;20031;-85
2023/12/20 10:17:29;;;;;;;1.77;0.90;;;;;;;;;;4981647;28;20030;-85
2023/12/20 10:19:54;;;;;;;0.30;0.30;;;;;;;;;;4985786;28;20085;-85
2023/12/20 10:22:20;;;;;;;0.20;0.20;;;;;;;;;;4991261;28;20046;-85
2023/12/20 10:24:46;;;;;;;1.20;0.70;;;;;;;;;;4994296;28;20034;-86
2023/12/20 10:27:12;;;;;;;0.45;0.30;;;;;;;;;;4991916;28;20042;-84
2023/12/20 10:29:38;;;;;;;3.45;1.50;;;;;;;;;;4991568;28;20030;-84
2023/12/20 10:32:27;;;;;;;1.00;0.55;;;;;;;;;;4992089;28;20515;-83
2023/12/20 10:34:54;;;;;;;0.50;0.50;;;;;;;;;;5006225;28;20489;-86
2023/12/20 10:37:20;;;;;;;1.23;0.70;;;;;;;;;;4991048;28;20185;-86
2023/12/20 10:39:56;;;;;;;1.13;0.40;;;;;;;;;;4986313;28;20394;-83
2023/12/20 10:42:31;;;;;;;0.28;0.28;;;;;;;;;;4988606;28;20042;-86
2023/12/20 10:44:56;;;;;;;0.55;0.30;;;;;;;;;;5004051;28;20127;-85
2023/12/20 10:47:24;;;;;;;2.80;0.30;;;;;;;;;;4990829;28;20068;-85
2023/12/20 10:49:52;;;;;;;0.30;0.30;;;;;;;;;;4991270;28;20050;-85
2023/12/20 10:52:17;;;;;;;0.50;0.40;;;;;;;;;;4993798;28;20130;-85
2023/12/20 10:54:44;;;;;;;0.50;0.40;;;;;;;;;;4992752;28;20053;-85
2023/12/20 10:57:09;;;;;;;0.90;0.50;;;;;;;;;;5005064;28;20497;-85
2023/12/20 10:59:39;;;;;;;0.85;0.40;;;;;;;;;;4986153;28;20038;-86
2023/12/20 11:02:05;;;;;;;0.60;0.50;;;;;;;;;;4991556;28;20035;-86
2023/12/20 11:05:08;;;;;;;1.33;0.40;;;;;;;;;;4995959;28;20073;-86
2023/12/20 11:07:37;;;;;;;3.95;1.20;;;;;;;;;;4995176;28;20046;-86
2023/12/20 11:10:15;;;;;;;8.85;3.20;;;;;;;;;;4992505;28;20041;-86
2023/12/20 11:13:17;;;;;;;1.90;0.55;;;;;;;;;;4994880;28;20045;-86
2023/12/20 11:15:43;;;;;;;3.53;0.60;;;;;;;;;;4949908;28;20562;-87
2023/12/20 11:18:09;;;;;;;1.05;0.52;;;;;;;;;;4991573;28;20018;-86
2023/12/20 11:20:38;;;;;;;1.38;0.70;;;;;;;;;;4991476;28;20045;-87
2023/12/20 11:23:05;;;;;;;3.97;1.50;;;;;;;;;;4989849;28;20089;-86
2023/12/20 11:25:46;;;;;;;4.38;1.80;;;;;;;;;;5001381;28;20500;-87
2023/12/20 11:28:12;;;;;;;2.97;0.60;;;;;;;;;;4995051;28;20041;-87
2023/12/20 11:30:49;;;;;;;0.30;0.30;;;;;;;;;;4991360;28;20134;-88
2023/12/20 11:33:16;;;;;;;0.40;0.38;;;;;;;;;;4994920;28;20519;-88
2023/12/20 11:35:41;;;;;;;2.22;1.00;;;;;;;;;;5009160;28;20045;-86
2023/12/20 11:38:09;;;;;;;0.80;0.52;;;;;;;;;;4995140;28;20038;-86
2023/12/20 11:40:35;;;;;;;3.50;1.30;;;;;;;;;;4995482;28;20038;-86
2023/12/20 11:43:00;;;;;;;1.05;0.70;;;;;;;;;;4995839;28;20061;-87
2023/12/20 11:45:27;;;;;;;0.65;0.40;;;;;;;;;;4994435;28;20042;-88
2023/12/20 11:47:55;;;;;;;2.00;1.10;;;;;;;;;;4997460;28;20034;-88
2023/12/20 11:50:23;;;;;;;0.52;0.50;;;;;;;;;;4992695;28;20049;-88
2023/12/20 11:52:49;;;;;;;2.85;1.40;;;;;;;;;;5010731;28;20038;-87
2023/12/20 11:55:15;;;;;;;2.10;1.30;;;;;;;;;;4995091;28;20034;-88
2023/12/20 11:57:42;;;;;;;3.47;1.52;;;;;;;;;;4993747;28;20130;-88
2023/12/20 12:00:08;;;;;;;3.25;1.23;;;;;;;;;;4994086;28;20034;-88
2023/12/20 12:02:42;;;;;;;3.17;1.55;;;;;;;;;;4995183;28;20042;-89
2023/12/20 12:05:08;;;;;;;1.63;0.90;;;;;;;;;;4996764;28;20035;-90
2023/12/20 12:07:34;;;;;;;1.25;0.75;;;;;;;;;;5010066;28;20164;-89
2023/12/20 12:10:00;;;;;;;0.60;0.50;;;;;;;;;;4994390;28;20658;-89
2023/12/20 12:12:27;;;;;;;1.77;0.60;;;;;;;;;;4993954;28;20629;-88
2023/12/20 12:14:53;;;;;;;1.48;0.88;;;;;;;;;;4999400;28;20062;-88
2023/12/20 12:17:18;;;;;;;3.33;1.30;;;;;;;;;;4996854;28;20030;-88
2023/12/20 12:19:44;;;;;;;1.13;0.70;;;;;;;;;;4994867;28;20031;-87
2023/12/20 12:22:13;;;;;;;0.70;0.60;;;;;;;;;;4991106;28;20060;-88
2023/12/20 12:24:44;;;;;;;0.77;0.65;;;;;;;;;;4989626;28;20033;-89
2023/12/20 12:27:10;;;;;;;0.80;0.60;;;;;;;;;;4997459;28;20056;-89
2023/12/20 12:29:36;;;;;;;0.90;0.60;;;;;;;;;;4996127;28;20481;-89
2023/12/20 12:32:06;;;;;;;0.70;0.60;;;;;;;;;;4993747;28;20560;-89
2023/12/20 12:34:36;;;;;;;0.43;0.38;;;;;;;;;;4996793;28;20169;-87
2023/12/20 12:37:03;;;;;;;0.95;0.50;;;;;;;;;;4998267;28;20044;-88
2023/12/20 12:39:29;;;;;;;0.50;0.40;;;;;;;;;;4997532;28;20030;-89
2023/12/20 12:41:56;;;;;;;1.55;0.88;;;;;;;;;;4991584;28;20117;-89
2023/12/20 12:44:23;;;;;;;1.27;0.63;;;;;;;;;;4987993;28;20064;-87
2023/12/20 12:46:53;;;;;;;0.65;0.50;;;;;;;;;;5010392;28;20097;-88
2023/12/20 12:49:22;;;;;;;1.73;1.02;;;;;;;;;;4991238;28;20042;-88
2023/12/20 12:51:47;;;;;;;0.50;0.50;;;;;;;;;;4993071;28;20418;-88
2023/12/20 12:54:15;;;;;;;1.25;0.73;;;;;;;;;;4992847;28;20041;-86
2023/12/20 12:56:41;;;;;;;0.60;0.50;;;;;;;;;;5009485;28;20065;-86
2023/12/20 12:59:06;;;;;;;0.68;0.60;;;;;;;;;;4995926;28;20404;-87
2023/12/20 13:01:32;;;;;;;1.00;0.77;;;;;;;;;;4991872;28;20417;-86
2023/12/20 13:03:57;;;;;;;1.65;0.95;;;;;;;;;;4985764;28;20480;-86
2023/12/20 13:06:23;;;;;;;0.77;0.60;;;;;;;;;;4991533;28;20062;-87
2023/12/20 13:08:49;;;;;;;0.93;0.45;;;;;;;;;;4993904;28;20044;-87
2023/12/20 13:11:15;;;;;;;0.50;0.30;;;;;;;;;;4994567;28;20116;-87
2023/12/20 13:13:40;;;;;;;0.70;0.50;;;;;;;;;;4991805;28;20059;-84
2023/12/20 13:16:06;;;;;;;0.93;0.60;;;;;;;;;;4993914;28;20476;-87
2023/12/20 13:18:32;;;;;;;0.30;0.30;;;;;;;;;;4994465;28;20049;-88
2023/12/20 13:20:57;;;;;;;0.32;0.32;;;;;;;;;;4994457;28;20069;-86
2023/12/20 13:23:22;;;;;;;0.40;0.38;;;;;;;;;;4992490;28;20031;-88
2023/12/20 13:25:48;;;;;;;0.30;0.30;;;;;;;;;;4989331;28;20485;-87
2023/12/20 13:28:14;;;;;;;0.40;0.40;;;;;;;;;;4992554;28;20046;-89
2023/12/20 13:30:39;;;;;;;0.70;0.50;;;;;;;;;;4992048;28;20049;-86
2023/12/20 13:33:05;;;;;;;0.43;0.40;;;;;;;;;;4993434;28;20030;-86
2023/12/20 13:35:32;;;;;;;0.40;0.40;;;;;;;;;;4990756;28;20048;-86
2023/12/20 13:37:58;;;;;;;0.40;0.40;;;;;;;;;;4992864;28;20038;-90
2023/12/20 13:40:24;;;;;;;0.40;0.38;;;;;;;;;;4993166;28;20053;-87
2023/12/20 13:42:50;;;;;;;0.20;0.20;;;;;;;;;;4992401;28;20026;-88
2023/12/20 13:45:16;;;;;;;0.30;0.30;;;;;;;;;;4986555;28;20045;-88
2023/12/20 13:47:41;;;;;;;0.30;0.30;;;;;;;;;;4988404;28;20038;-89
2023/12/20 13:50:07;;;;;;;0.85;0.50;;;;;;;;;;4991259;28;20033;-87
2023/12/20 13:52:32;;;;;;;0.65;0.65;;;;;;;;;;4992625;28;20516;-86
2023/12/20 13:54:58;;;;;;;0.82;0.60;;;;;;;;;;4987334;28;20026;-86
2023/12/20 13:57:23;;;;;;;0.40;0.40;;;;;;;;;;4993984;28;20098;-88
2023/12/20 13:59:49;;;;;;;0.50;0.47;;;;;;;;;;4989477;28;20045;-88
2023/12/20 14:02:16;;;;;;;0.65;0.65;;;;;;;;;;4996559;28;20050;-88
2023/12/20 14:04:41;;;;;;;1.45;0.60;;;;;;;;;;4990371;28;20513;-88
2023/12/20 14:07:07;;;;;;;0.52;0.50;;;;;;;;;;4991593;28;20046;-86
2023/12/20 14:09:34;;;;;;;0.70;0.60;;;;;;;;;;4984789;28;20117;-83
2023/12/20 14:11:59;;;;;;;1.63;0.70;;;;;;;;;;4988318;28;20038;-85
2023/12/20 14:14:25;;;;;;;2.70;0.75;;;;;;;;;;4988824;28;20100;-87
2023/12/20 14:16:50;;;;;;;1.13;0.75;;;;;;;;;;4984783;28;20051;-89
2023/12/20 14:19:16;;;;;;;1.40;0.90;;;;;;;;;;4989702;28;20073;-87
2023/12/20 14:21:42;;;;;;;0.80;0.50;;;;;;;;;;4987756;28;20066;-89
2023/12/20 14:24:07;;;;;;;4.00;2.20;;;;;;;;;;4987535;28;20062;-88
2023/12/20 14:26:33;;;;;;;0.65;0.60;;;;;;;;;;4980059;28;20038;-89
2023/12/20 14:28:58;;;;;;;0.75;0.60;;;;;;;;;;4984810;28;20717;-88
2023/12/20 14:31:24;;;;;;;1.20;0.70;;;;;;;;;;4989401;28;20038;-89
2023/12/20 14:33:53;;;;;;;0.77;0.68;;;;;;;;;;4991011;28;20026;-90
2023/12/20 14:36:19;;;;;;;0.60;0.60;;;;;;;;;;4993910;28;20034;-90
2023/12/20 14:38:46;;;;;;;0.75;0.75;;;;;;;;;;4986557;28;20026;-90